Time;durP1;ratioP1;P1;durP2;ratioP2;P2;SDS_P1;SDS_P2;PMS_P1;PMS_P2;Temp;Humidity;BMP_temperature;BMP_pressure;BME280_temperature;BME280_humidity;BME280_pressure;Samples;Min_cycle;Max_cycle;Signal;HPM_P1;HPM_P2
2024/03/13 00:02:45;;;;;;;20.37;16.60;;;;;;;7.77;100.00;101525.19;7651615;23;20262;-68
2024/03/13 00:06:10;;;;;;;18.33;15.87;;;;;;;7.76;100.00;101522.63;7631101;23;20232;-68
2024/03/13 00:09:43;;;;;;;18.53;15.77;;;;;;;7.75;100.00;101537.00;7663552;23;20212;-68
2024/03/13 00:13:04;;;;;;;18.93;15.03;;;;;;;7.58;100.00;101532.75;7655646;23;20516;-68
2024/03/13 00:16:27;;;;;;;20.07;15.27;;;;;;;7.54;100.00;101528.53;7652319;23;20912;-68
2024/03/13 00:19:47;;;;;;;19.97;14.70;;;;;;;7.47;100.00;101537.94;7659449;23;20236;-68
2024/03/13 00:23:10;;;;;;;18.20;16.30;;;;;;;7.44;100.00;101539.97;7656994;23;20304;-69
2024/03/13 00:26:32;;;;;;;16.67;14.07;;;;;;;7.48;100.00;101537.00;7652050;23;20452;-68
2024/03/13 00:29:53;;;;;;;16.90;13.43;;;;;;;7.35;100.00;101541.44;7665115;23;20213;-68
2024/03/13 00:33:14;;;;;;;16.13;12.30;;;;;;;7.20;100.00;101551.31;7659387;23;20208;-68
2024/03/13 00:36:38;;;;;;;23.63;14.73;;;;;;;7.16;100.00;101555.16;7654699;23;20438;-68
2024/03/13 00:40:00;;;;;;;20.07;15.77;;;;;;;7.13;100.00;101551.81;7661696;23;20223;-68
2024/03/13 00:43:23;;;;;;;18.30;15.43;;;;;;;7.06;100.00;101561.19;7661309;23;20216;-68
2024/03/13 00:46:44;;;;;;;19.80;16.77;;;;;;;7.04;100.00;101547.91;7639980;23;20213;-68
2024/03/13 00:50:07;;;;;;;21.57;15.73;;;;;;;6.99;100.00;101554.50;7656061;23;20216;-68
2024/03/13 00:53:28;;;;;;;18.10;16.20;;;;;;;6.98;100.00;101555.47;7662157;23;20212;-68
2024/03/13 00:56:51;;;;;;;19.60;16.60;;;;;;;6.95;100.00;101552.97;7654944;23;20216;-69
2024/03/13 01:00:15;;;;;;;19.93;17.53;;;;;;;6.87;100.00;101548.09;7656927;23;20216;-68
2024/03/13 01:03:37;;;;;;;21.23;16.20;;;;;;;6.87;100.00;101549.91;7658534;23;20209;-68
2024/03/13 01:06:57;;;;;;;20.00;17.03;;;;;;;6.81;100.00;101540.44;7639613;23;20212;-68
2024/03/13 01:10:19;;;;;;;21.13;17.90;;;;;;;6.79;100.00;101544.19;7658552;23;20649;-68
2024/03/13 01:13:43;;;;;;;20.97;17.17;;;;;;;6.80;100.00;101536.03;7666449;23;20212;-69
2024/03/13 01:17:04;;;;;;;22.33;18.00;;;;;;;6.83;100.00;101537.66;7650456;23;20204;-68
2024/03/13 01:20:25;;;;;;;21.80;16.80;;;;;;;6.79;100.00;101528.09;7658289;23;20584;-68
2024/03/13 01:23:46;;;;;;;19.17;16.00;;;;;;;6.89;100.00;101529.25;7662075;23;20212;-68
2024/03/13 01:27:07;;;;;;;22.50;16.10;;;;;;;6.95;100.00;101528.84;7658704;23;20250;-68
2024/03/13 01:30:30;;;;;;;21.70;15.97;;;;;;;7.04;100.00;101522.91;7652821;23;20209;-68
2024/03/13 01:33:50;;;;;;;19.33;17.03;;;;;;;6.92;100.00;101516.53;7615580;23;20209;-67
2024/03/13 01:55:30;;;;;;;23.77;16.50;;;;;;;6.86;100.00;101483.91;7657744;23;20284;-68
2024/03/13 01:59:02;;;;;;;22.57;17.63;;;;;;;6.79;100.00;101486.09;7646900;23;20803;-67
2024/03/13 02:02:23;;;;;;;22.00;17.67;;;;;;;6.56;100.00;101475.09;7636829;23;20303;-68
2024/03/13 02:05:48;;;;;;;18.77;16.83;;;;;;;6.47;100.00;101473.00;7655586;23;20252;-68
2024/03/13 02:09:10;;;;;;;18.10;16.20;;;;;;;6.60;100.00;101481.97;7664562;23;20208;-68
2024/03/13 02:12:30;;;;;;;19.00;16.97;;;;;;;6.40;100.00;101478.72;7659189;23;20208;-68
2024/03/13 02:15:53;;;;;;;27.03;18.37;;;;;;;6.38;100.00;101482.47;7651465;23;20224;-68
2024/03/13 02:19:14;;;;;;;22.03;15.33;;;;;;;6.40;100.00;101477.88;7662524;23;20216;-68
2024/03/13 02:22:38;;;;;;;17.47;15.70;;;;;;;6.39;100.00;101478.81;7656313;23;20216;-69
2024/03/13 02:25:59;;;;;;;21.50;18.13;;;;;;;6.52;100.00;101485.16;7599576;23;20240;-67
2024/03/13 02:29:21;;;;;;;21.33;17.87;;;;;;;6.42;100.00;101490.19;7625068;23;20458;-68
2024/03/13 02:32:41;;;;;;;23.43;16.17;;;;;;;6.39;100.00;101485.06;7594655;23;20220;-68
2024/03/13 02:36:03;;;;;;;19.47;17.30;;;;;;;6.36;100.00;101479.03;7609545;23;20582;-67
2024/03/13 02:39:25;;;;;;;25.43;17.23;;;;;;;6.31;100.00;101479.31;7619913;23;20216;-68
2024/03/13 02:42:48;;;;;;;19.80;15.43;;;;;;;6.36;100.00;101482.53;7617087;23;20299;-68
2024/03/13 02:46:09;;;;;;;22.53;16.83;;;;;;;6.20;100.00;101486.25;7604694;23;20209;-67
2024/03/13 02:49:30;;;;;;;22.67;17.37;;;;;;;6.10;100.00;101469.91;7599115;23;20772;-68
2024/03/13 02:52:51;;;;;;;23.37;18.17;;;;;;;6.21;100.00;101472.81;7596179;23;20235;-69
2024/03/13 02:56:11;;;;;;;19.13;17.03;;;;;;;6.13;100.00;101468.88;7608359;23;20357;-67
2024/03/13 02:59:34;;;;;;;18.80;15.97;;;;;;;6.13;100.00;101460.84;7622315;23;20211;-69
2024/03/13 03:02:55;;;;;;;17.50;15.57;;;;;;;5.93;100.00;101454.00;7611834;23;20208;-68
2024/03/13 03:06:16;;;;;;;23.40;19.13;;;;;;;5.98;100.00;101454.59;7613345;23;20204;-68
2024/03/13 03:09:37;;;;;;;22.47;18.23;;;;;;;6.05;100.00;101463.13;7618745;23;20204;-69
2024/03/13 03:12:58;;;;;;;24.53;18.37;;;;;;;5.90;100.00;101464.03;7611622;23;20224;-69
2024/03/13 03:16:19;;;;;;;20.00;17.90;;;;;;;5.73;100.00;101469.50;7605397;23;20216;-68
2024/03/13 03:19:40;;;;;;;20.70;17.70;;;;;;;5.75;100.00;101462.25;7620101;23;20216;-68
2024/03/13 03:23:01;;;;;;;19.97;17.60;;;;;;;5.82;100.00;101459.09;7610363;23;20212;-68
2024/03/13 03:26:23;;;;;;;24.10;18.60;;;;;;;5.90;100.00;101453.34;7580562;23;20217;-68
2024/03/13 03:29:45;;;;;;;21.50;19.23;;;;;;;5.70;100.00;101443.78;7568697;23;20221;-69
2024/03/13 03:33:06;;;;;;;24.60;18.17;;;;;;;5.63;100.00;101434.44;7569217;23;20221;-69
2024/03/13 03:36:26;;;;;;;24.33;17.63;;;;;;;5.67;100.00;101439.47;7563095;23;20226;-69
2024/03/13 03:39:48;;;;;;;21.70;17.80;;;;;;;5.68;100.00;101418.94;7565276;23;20210;-68
2024/03/13 03:43:10;;;;;;;22.83;18.33;;;;;;;5.61;100.00;101426.47;7565488;23;20213;-69
2024/03/13 03:46:31;;;;;;;22.20;19.83;;;;;;;5.56;100.00;101433.06;7575483;23;21172;-69
2024/03/13 03:49:52;;;;;;;19.10;15.93;;;;;;;5.42;100.00;101443.72;7584822;23;20288;-68
2024/03/13 03:53:13;;;;;;;20.37;17.40;;;;;;;5.58;100.00;101447.19;7580003;23;20299;-68
2024/03/13 03:56:38;;;;;;;26.43;21.63;;;;;;;5.54;100.00;101445.66;7578621;23;20533;-69
2024/03/13 04:00:00;;;;;;;25.07;20.53;;;;;;;5.54;100.00;101445.66;7596180;23;20220;-68
2024/03/13 04:03:22;;;;;;;24.40;20.43;;;;;;;5.39;100.00;101454.56;7580772;23;20209;-67
2024/03/13 04:06:43;;;;;;;23.73;19.00;;;;;;;5.45;100.00;101463.09;7574342;23;20268;-68
2024/03/13 04:10:05;;;;;;;26.07;21.73;;;;;;;5.51;100.00;101469.88;7566814;23;20208;-68
2024/03/13 04:13:28;;;;;;;25.33;19.50;;;;;;;5.47;100.00;101469.22;7569156;23;20217;-68
2024/03/13 04:16:49;;;;;;;20.73;18.20;;;;;;;5.53;100.00;101470.66;7558734;23;20213;-68
2024/03/13 04:20:12;;;;;;;26.33;17.50;;;;;;;5.50;100.00;101478.88;7562101;23;20265;-68
2024/03/13 04:23:33;;;;;;;20.60;16.73;;;;;;;5.39;100.00;101468.81;7578114;23;20213;-68
2024/03/13 04:26:54;;;;;;;23.77;19.87;;;;;;;5.34;100.00;101464.69;7609974;23;20522;-67
2024/03/13 04:30:15;;;;;;;21.23;19.03;;;;;;;5.38;100.00;101468.91;7591222;23;20220;-68
2024/03/13 04:33:36;;;;;;;24.43;19.23;;;;;;;5.17;100.00;101464.78;7599667;23;20212;-67
2024/03/13 04:36:57;;;;;;;22.83;20.00;;;;;;;4.99;100.00;101457.78;7600208;23;20976;-69
2024/03/13 04:40:19;;;;;;;25.63;19.77;;;;;;;5.04;100.00;101464.63;7591329;23;20213;-68
2024/03/13 04:43:41;;;;;;;23.30;17.93;;;;;;;5.12;100.00;101472.19;7604278;23;20278;-68
2024/03/13 04:47:02;;;;;;;22.60;20.20;;;;;;;5.06;100.00;101477.88;7611407;23;20228;-69
2024/03/13 04:50:23;;;;;;;23.70;20.20;;;;;;;5.09;100.00;101475.88;7608571;23;20306;-69
2024/03/13 04:53:44;;;;;;;19.63;17.57;;;;;;;5.09;100.00;101470.53;7601443;23;20296;-68
2024/03/13 04:57:05;;;;;;;25.87;19.50;;;;;;;4.96;100.00;101474.00;7618030;23;20217;-68
2024/03/13 05:00:26;;;;;;;21.47;17.53;;;;;;;5.14;100.00;101484.53;7620409;23;20224;-67
2024/03/13 05:03:49;;;;;;;18.83;16.47;;;;;;;5.25;100.00;101478.56;7614531;23;20618;-68
2024/03/13 05:07:12;;;;;;;20.73;18.37;;;;;;;5.41;100.00;101482.06;7611144;23;20208;-68
2024/03/13 05:10:33;;;;;;;18.43;16.53;;;;;;;5.23;100.00;101480.47;7573093;23;20445;-68
2024/03/13 05:13:54;;;;;;;25.50;19.40;;;;;;;5.26;100.00;101472.25;7602962;23;20635;-68
2024/03/13 05:17:16;;;;;;;21.47;17.77;;;;;;;5.18;100.00;101469.16;7603386;23;20220;-68
2024/03/13 05:20:37;;;;;;;21.67;18.53;;;;;;;5.13;100.00;101465.91;7596271;23;20252;-68
2024/03/13 05:23:58;;;;;;;21.67;18.37;;;;;;;5.01;100.00;101458.56;7616054;23;20555;-67
2024/03/13 05:27:20;;;;;;;24.60;20.13;;;;;;;4.76;100.00;101451.94;7569734;23;20212;-68
2024/03/13 05:30:41;;;;;;;24.73;18.83;;;;;;;4.80;100.00;101448.16;7607815;23;20208;-67
2024/03/13 05:34:02;;;;;;;22.57;18.87;;;;;;;4.71;100.00;101447.81;7618060;23;20212;-69
2024/03/13 05:37:23;;;;;;;21.53;17.50;;;;;;;5.42;100.00;101447.22;7609366;23;20469;-68
2024/03/13 05:40:44;;;;;;;26.90;22.67;;;;;;;5.11;100.00;101459.78;7610359;23;20311;-68
2024/03/13 05:44:05;;;;;;;24.80;20.30;;;;;;;4.69;100.00;101445.19;7620906;23;20213;-68
2024/03/13 05:47:26;;;;;;;26.23;23.30;;;;;;;4.66;100.00;101453.41;7606159;23;20208;-68
2024/03/13 05:50:47;;;;;;;25.87;19.00;;;;;;;4.59;100.00;101452.00;7609204;23;20216;-69
2024/03/13 05:54:08;;;;;;;24.47;19.27;;;;;;;4.81;100.00;101457.03;7620608;23;20216;-67
2024/03/13 05:57:29;;;;;;;31.03;23.03;;;;;;;4.67;100.00;101465.78;7612033;23;20224;-68
2024/03/13 06:00:52;;;;;;;28.80;20.77;;;;;;;4.88;100.00;101463.75;7599329;23;20209;-68
2024/03/13 06:04:13;;;;;;;25.37;19.37;;;;;;;5.13;100.00;101472.09;7605952;23;20216;-68
2024/03/13 06:07:34;;;;;;;25.57;21.70;;;;;;;4.88;100.00;101471.78;7585557;23;20217;-68
2024/03/13 06:10:55;;;;;;;28.37;20.80;;;;;;;4.77;100.00;101471.50;7596020;23;20834;-68
2024/03/13 06:14:16;;;;;;;34.10;24.03;;;;;;;4.96;100.00;101474.00;7605316;23;20307;-69
2024/03/13 06:17:37;;;;;;;29.60;21.20;;;;;;;4.97;100.00;101470.38;7592636;23;20220;-69
2024/03/13 06:20:58;;;;;;;26.47;21.60;;;;;;;4.95;100.00;101480.28;7624913;23;20212;-70
2024/03/13 06:24:30;;;;;;;28.57;22.13;;;;;;;4.98;100.00;101478.31;7611842;23;20208;-69
2024/03/13 06:28:00;;;;;;;27.33;20.50;;;;;;;5.00;100.00;101471.09;7608919;23;20294;-67
2024/03/13 06:31:20;;;;;;;28.30;22.40;;;;;;;5.10;100.00;101472.28;7596452;23;20215;-71
2024/03/13 06:34:41;;;;;;;26.53;19.63;;;;;;;5.28;100.00;101471.22;7611442;23;20217;-69
2024/03/13 06:38:03;;;;;;;25.30;20.80;;;;;;;5.31;100.00;101467.53;7608711;23;20683;-69
2024/03/13 06:41:24;;;;;;;25.37;20.23;;;;;;;5.56;100.00;101463.34;7618291;23;20212;-69
2024/03/13 06:44:45;;;;;;;28.60;20.17;;;;;;;5.77;100.00;101463.88;7579602;23;20217;-70
2024/03/13 06:48:06;;;;;;;21.60;19.23;;;;;;;5.91;100.00;101468.44;7596549;23;20451;-70
2024/03/13 06:51:27;;;;;;;26.40;20.53;;;;;;;5.74;100.00;101473.91;7610504;23;20559;-69
2024/03/13 06:54:48;;;;;;;26.23;20.70;;;;;;;5.69;100.00;101480.38;7615397;23;20904;-69
2024/03/13 06:58:11;;;;;;;26.10;21.33;;;;;;;5.97;100.00;101476.09;7614900;23;20228;-68
2024/03/13 07:01:32;;;;;;;24.87;19.27;;;;;;;5.99;100.00;101485.75;7606791;23;20796;-70
2024/03/13 07:04:53;;;;;;;26.57;21.03;;;;;;;5.82;100.00;101482.34;7613263;23;20546;-70
2024/03/13 07:08:14;;;;;;;26.70;18.83;;;;;;;5.97;100.00;101482.31;7621558;23;20268;-71
2024/03/13 07:11:36;;;;;;;26.33;21.30;;;;;;;5.89;100.00;101484.59;7613415;23;20216;-69
2024/03/13 07:14:57;;;;;;;25.23;20.40;;;;;;;5.90;100.00;101472.06;7617396;23;20224;-70
2024/03/13 07:18:18;;;;;;;21.87;18.67;;;;;;;6.11;100.00;101485.00;7610780;23;20220;-69
2024/03/13 07:21:39;;;;;;;25.10;20.27;;;;;;;6.18;100.00;101483.69;7610611;23;20626;-69
2024/03/13 07:25:01;;;;;;;28.03;19.50;;;;;;;6.18;100.00;101483.69;7618708;23;20276;-69
2024/03/13 07:28:22;;;;;;;27.20;21.17;;;;;;;6.45;100.00;101479.31;7614519;23;20212;-70
2024/03/13 07:31:43;;;;;;;25.97;19.43;;;;;;;6.80;100.00;101471.72;7608766;23;20213;-68
2024/03/13 07:35:04;;;;;;;23.30;20.03;;;;;;;6.51;100.00;101478.06;7608150;23;20877;-69
2024/03/13 07:38:25;;;;;;;31.93;22.90;;;;;;;6.67;100.00;101480.66;7615647;23;20216;-71
2024/03/13 07:41:46;;;;;;;25.53;19.77;;;;;;;6.89;100.00;101478.31;7611292;23;20209;-69
2024/03/13 07:45:14;;;;;;;33.30;23.53;;;;;;;6.89;100.00;101479.19;7614609;23;20217;-69
2024/03/13 07:48:35;;;;;;;26.70;19.87;;;;;;;7.10;100.00;101485.84;7620249;23;20280;-67
2024/03/13 07:52:00;;;;;;;28.07;18.70;;;;;;;7.18;100.00;101488.03;7614118;23;20806;-68
2024/03/13 07:55:21;;;;;;;22.77;20.00;;;;;;;7.08;100.00;101469.00;7611558;23;20212;-69
2024/03/13 07:58:42;;;;;;;23.13;20.30;;;;;;;7.41;100.00;101468.63;7614910;23;20220;-69
2024/03/13 08:02:04;;;;;;;26.23;20.13;;;;;;;7.26;100.00;101450.84;7607227;23;20559;-69
2024/03/13 08:05:25;;;;;;;24.87;19.17;;;;;;;7.51;100.00;101448.25;7610520;23;20213;-71
2024/03/13 08:08:46;;;;;;;22.27;17.27;;;;;;;7.61;100.00;101445.84;7617701;23;20216;-69
2024/03/13 08:12:07;;;;;;;21.63;17.83;;;;;;;7.22;100.00;101438.59;7614652;23;20220;-70
2024/03/13 08:15:30;;;;;;;24.60;18.97;;;;;;;7.54;100.00;101423.06;7611674;23;20584;-69
2024/03/13 08:18:51;;;;;;;24.47;20.83;;;;;;;7.51;100.00;101415.22;7613468;23;20217;-69
2024/03/13 08:22:12;;;;;;;22.17;17.33;;;;;;;7.88;100.00;101415.31;7610425;23;20213;-70
2024/03/13 08:25:33;;;;;;;23.27;17.50;;;;;;;7.74;100.00;101412.69;7591460;23;20300;-69
2024/03/13 08:28:54;;;;;;;21.30;18.03;;;;;;;7.88;100.00;101407.25;7596810;23;20592;-69
2024/03/13 08:32:15;;;;;;;26.17;19.83;;;;;;;8.21;100.00;101421.97;7610033;23;20208;-71
2024/03/13 08:35:41;;;;;;;22.13;17.60;;;;;;;7.97;100.00;101424.50;7610799;23;20216;-68
2024/03/13 08:39:02;;;;;;;24.10;20.40;;;;;;;7.98;100.00;101426.25;7620202;23;20220;-70
2024/03/13 08:42:22;;;;;;;22.37;17.23;;;;;;;7.97;100.00;101416.47;7595231;23;20208;-69
2024/03/13 08:45:43;;;;;;;25.80;19.93;;;;;;;8.08;100.00;101412.06;7608123;23;20216;-68
2024/03/13 08:49:06;;;;;;;22.47;17.30;;;;;;;8.15;100.00;101425.06;7596041;23;20216;-69
2024/03/13 08:52:27;;;;;;;21.30;18.07;;;;;;;8.37;100.00;101425.31;7609902;23;20220;-69
2024/03/13 08:55:48;;;;;;;23.93;18.47;;;;;;;8.90;100.00;101430.38;7610657;23;20422;-69
2024/03/13 08:59:11;;;;;;;21.53;18.97;;;;;;;8.92;100.00;101430.25;7618190;23;20216;-68
2024/03/13 09:02:32;;;;;;;22.67;19.17;;;;;;;9.13;100.00;101439.44;7605903;23;20212;-69
2024/03/13 09:05:53;;;;;;;24.43;18.07;;;;;;;9.56;100.00;101433.44;7604477;23;20299;-67
2024/03/13 09:09:22;;;;;;;23.37;17.37;;;;;;;9.33;100.00;101445.06;7620863;23;20220;-69
2024/03/13 09:12:45;;;;;;;23.20;17.23;;;;;;;10.04;100.00;101442.28;7615627;23;20212;-68
2024/03/13 09:16:06;;;;;;;24.00;18.63;;;;;;;10.08;100.00;101441.06;7613293;23;20220;-67
2024/03/13 09:19:27;;;;;;;21.07;16.80;;;;;;;9.90;100.00;101444.31;7619459;23;20267;-68
2024/03/13 09:22:48;;;;;;;21.43;16.27;;;;;;;9.48;100.00;101443.06;7613623;23;20448;-69
2024/03/13 09:26:10;;;;;;;22.37;17.33;;;;;;;9.73;100.00;101440.22;7567565;23;20290;-68
2024/03/13 09:29:31;;;;;;;20.20;16.93;;;;;;;10.09;100.00;101447.31;7595704;23;20585;-68
2024/03/13 09:32:52;;;;;;;16.57;13.90;;;;;;;9.87;100.00;101437.31;7588110;23;20217;-68
2024/03/13 09:36:13;;;;;;;16.13;12.67;;;;;;;9.89;100.00;101438.06;7595752;23;20217;-68
2024/03/13 09:39:34;;;;;;;18.97;15.23;;;;;;;10.05;100.00;101444.00;7605344;23;20307;-67
2024/03/13 09:42:55;;;;;;;17.70;13.53;;;;;;;10.48;100.00;101446.91;7582750;23;20612;-67
2024/03/13 09:46:16;;;;;;;21.10;15.63;;;;;;;10.50;100.00;101444.09;7593517;23;20213;-67
2024/03/13 09:49:38;;;;;;;16.33;14.43;;;;;;;10.60;100.00;101442.41;7604542;23;20218;-68
2024/03/13 09:52:59;;;;;;;16.60;13.40;;;;;;;10.36;100.00;101447.88;7595940;23;20217;-67
2024/03/13 09:56:19;;;;;;;16.87;13.73;;;;;;;10.04;100.00;101447.66;7599342;23;20217;-67
2024/03/13 09:59:41;;;;;;;16.60;12.93;;;;;;;11.21;100.00;101436.41;7608169;23;20217;-67
2024/03/13 10:03:02;;;;;;;17.93;16.03;;;;;;;10.97;100.00;101447.38;7590129;23;20672;-67
2024/03/13 10:06:23;;;;;;;17.47;14.27;;;;;;;11.13;100.00;101438.91;7598690;23;20217;-66
2024/03/13 10:09:44;;;;;;;15.87;13.77;;;;;;;11.10;100.00;101433.75;7606008;23;20209;-67
2024/03/13 10:13:06;;;;;;;18.23;14.33;;;;;;;11.77;100.00;101435.28;7601315;23;20228;-67
2024/03/13 10:16:27;;;;;;;19.20;16.17;;;;;;;12.19;100.00;101421.75;7595839;23;20552;-67
2024/03/13 10:19:48;;;;;;;21.67;15.80;;;;;;;11.77;100.00;101416.34;7582976;23;20430;-68
2024/03/13 10:23:11;;;;;;;15.53;13.07;;;;;;;11.96;100.00;101413.81;7607065;23;20251;-67
2024/03/13 10:26:32;;;;;;;15.50;12.87;;;;;;;12.19;100.00;101414.50;7602169;23;20217;-67
2024/03/13 10:29:53;;;;;;;15.23;12.20;;;;;;;13.23;100.00;101415.06;7587312;23;20213;-68
2024/03/13 10:33:14;;;;;;;18.10;12.33;;;;;;;13.76;100.00;101421.81;7580561;23;20221;-68
2024/03/13 10:36:36;;;;;;;15.53;12.53;;;;;;;13.76;100.00;101426.38;7579706;23;20217;-68
2024/03/13 10:39:58;;;;;;;11.03;9.60;;;;;;;12.41;100.00;101417.03;7586064;23;20252;-68
2024/03/13 10:43:19;;;;;;;15.93;10.47;;;;;;;12.32;100.00;101431.38;7583196;23;20259;-67
2024/03/13 10:46:41;;;;;;;12.70;11.20;;;;;;;13.18;100.00;101412.81;7533840;23;20217;-67
2024/03/13 10:50:03;;;;;;;11.73;9.80;;;;;;;12.83;100.00;101412.38;7584156;23;20212;-68
2024/03/13 10:53:24;;;;;;;14.13;10.20;;;;;;;11.84;100.00;101425.66;7583963;23;20212;-67
2024/03/13 10:56:50;;;;;;;10.67;8.90;;;;;;;11.10;100.00;101422.94;7581386;23;20217;-67
2024/03/13 11:00:11;;;;;;;10.03;9.03;;;;;;;12.06;100.00;101421.13;7569307;23;20567;-67
2024/03/13 11:03:34;;;;;;;10.10;9.10;;;;;;;11.00;100.00;101424.69;7574534;23;20236;-68
2024/03/13 11:06:55;;;;;;;13.50;10.10;;;;;;;10.85;100.00;101434.88;7572209;23;20221;-70
2024/03/13 11:10:21;;;;;;;10.73;8.90;;;;;;;11.18;100.00;101434.81;7575591;23;20216;-69
2024/03/13 11:13:42;;;;;;;13.70;10.70;;;;;;;11.01;100.00;101423.72;7585953;23;20209;-67
2024/03/13 11:17:03;;;;;;;12.23;10.13;;;;;;;11.43;100.00;101413.91;7572401;23;20213;-69
2024/03/13 11:20:26;;;;;;;11.10;9.93;;;;;;;13.36;100.00;101410.25;7575512;23;20790;-72
2024/03/13 11:23:47;;;;;;;11.57;10.00;;;;;;;12.69;100.00;101401.94;7586587;23;20216;-69
2024/03/13 11:27:10;;;;;;;12.07;9.93;;;;;;;14.30;100.00;101411.22;7614837;23;20216;-69
2024/03/13 11:30:34;;;;;;;12.37;9.57;;;;;;;15.45;100.00;101397.06;7612198;23;20558;-68
2024/03/13 11:33:56;;;;;;;12.37;10.20;;;;;;;18.31;100.00;101388.75;7618357;23;20217;-69
2024/03/13 11:37:17;;;;;;;7.97;7.18;;;;;;;17.00;100.00;101393.38;7603859;23;20830;-69
2024/03/13 11:40:38;;;;;;;12.87;9.60;;;;;;;12.35;100.00;101400.53;7615016;23;20216;-69
2024/03/13 11:43:59;;;;;;;10.17;8.17;;;;;;;11.81;100.00;101398.91;7619291;23;20216;-69
2024/03/13 11:47:22;;;;;;;8.80;7.90;;;;;;;11.15;100.00;101402.72;7605225;23;20216;-69
2024/03/13 11:51:08;;;;;;;9.20;8.30;;;;;;;11.69;100.00;101399.09;7609373;23;20212;-70
2024/03/13 11:54:30;;;;;;;10.93;8.87;;;;;;;11.27;100.00;101390.91;7637008;23;21793;-70
2024/03/13 11:57:53;;;;;;;10.07;8.17;;;;;;;11.40;100.00;101392.56;7611291;23;20212;-68
2024/03/13 12:01:14;;;;;;;8.70;7.70;;;;;;;11.11;100.00;101390.47;7608705;23;20711;-70
2024/03/13 12:04:38;;;;;;;15.37;9.57;;;;;;;11.08;100.00;101385.31;7605504;23;20250;-69
2024/03/13 12:08:00;;;;;;;9.87;7.23;;;;;;;11.29;100.00;101379.97;7595023;23;20220;-69
2024/03/13 12:11:21;;;;;;;9.17;7.93;;;;;;;11.57;100.00;101381.19;7613777;23;20212;-68
2024/03/13 12:14:43;;;;;;;8.80;7.90;;;;;;;11.52;100.00;101381.59;7622587;23;20216;-69
2024/03/13 12:18:05;;;;;;;10.23;8.30;;;;;;;11.33;100.00;101384.13;7596297;23;20208;-69
2024/03/13 12:21:30;;;;;;;9.37;8.30;;;;;;;11.64;100.00;101372.44;7614347;23;20209;-69
2024/03/13 12:24:51;;;;;;;10.93;7.23;;;;;;;12.02;100.00;101358.34;7606832;23;20660;-71
2024/03/13 12:28:16;;;;;;;11.27;8.87;;;;;;;12.06;100.00;101358.97;7606208;23;20213;-68
2024/03/13 12:31:37;;;;;;;9.87;8.43;;;;;;;11.97;100.00;101374.13;7594038;23;20213;-67
2024/03/13 12:34:58;;;;;;;9.93;8.50;;;;;;;11.88;100.00;101372.22;7598693;23;20221;-69
2024/03/13 12:38:20;;;;;;;11.00;8.77;;;;;;;11.55;100.00;101367.84;7601865;23;20566;-69
2024/03/13 12:41:41;;;;;;;9.47;7.90;;;;;;;11.37;100.00;101371.25;7593370;23;20213;-71
2024/03/13 12:45:04;;;;;;;11.63;9.53;;;;;;;11.19;100.00;101368.22;7604950;23;20221;-70
2024/03/13 12:48:26;;;;;;;12.17;10.37;;;;;;;11.54;100.00;101365.25;7603631;23;20295;-70
2024/03/13 12:51:47;;;;;;;13.27;9.53;;;;;;;11.66;100.00;101372.31;7595206;23;20292;-70
2024/03/13 12:55:10;;;;;;;13.23;10.33;;;;;;;11.82;100.00;101368.22;7601782;23;20212;-67
2024/03/13 12:58:30;;;;;;;11.63;9.80;;;;;;;11.83;100.00;101366.34;7602195;23;20551;-68
2024/03/13 13:01:51;;;;;;;9.80;8.43;;;;;;;11.57;100.00;101367.69;7585699;23;20209;-70
2024/03/13 13:05:13;;;;;;;13.17;10.23;;;;;;;11.49;100.00;101359.41;7591260;23;20449;-69
2024/03/13 13:08:34;;;;;;;11.80;9.73;;;;;;;11.58;100.00;101345.09;7604486;23;20367;-68
2024/03/13 13:11:55;;;;;;;12.57;9.53;;;;;;;11.51;100.00;101363.69;7595175;23;20221;-68
2024/03/13 13:15:16;;;;;;;11.30;10.10;;;;;;;11.53;100.00;101350.91;7594055;23;20594;-67
2024/03/13 13:18:42;;;;;;;11.23;8.73;;;;;;;11.69;100.00;101348.63;7604538;23;20568;-68
2024/03/13 13:22:03;;;;;;;14.13;10.77;;;;;;;11.48;100.00;101344.16;7599177;23;20573;-69
2024/03/13 13:25:26;;;;;;;12.63;9.97;;;;;;;11.34;100.00;101336.38;7615957;23;20788;-70
2024/03/13 13:28:47;;;;;;;11.27;9.63;;;;;;;11.40;100.00;101343.97;7621632;23;20453;-69
2024/03/13 13:32:08;;;;;;;9.77;8.67;;;;;;;11.71;100.00;101338.56;7607971;23;20526;-68
2024/03/13 13:35:29;;;;;;;18.20;12.40;;;;;;;11.81;100.00;101333.19;7598058;23;20569;-69
2024/03/13 13:38:51;;;;;;;13.53;11.63;;;;;;;11.99;100.00;101328.91;7619497;23;20299;-69
2024/03/13 13:42:11;;;;;;;10.07;9.07;;;;;;;11.92;100.00;101334.00;7595728;23;20441;-69
2024/03/13 13:45:32;;;;;;;13.57;10.50;;;;;;;11.98;100.00;101324.50;7604081;23;20213;-67
2024/03/13 13:48:54;;;;;;;12.33;9.23;;;;;;;12.17;100.00;101321.88;7579531;23;20220;-68
2024/03/13 13:52:15;;;;;;;11.60;10.40;;;;;;;12.01;100.00;101333.19;7600838;23;20212;-68
2024/03/13 13:55:36;;;;;;;12.63;11.30;;;;;;;12.01;100.00;101318.84;7612028;23;20212;-69
2024/03/13 13:58:57;;;;;;;11.23;8.10;;;;;;;11.97;100.00;101323.63;7614114;23;20606;-69
2024/03/13 14:02:18;;;;;;;12.17;9.90;;;;;;;11.92;100.00;101331.31;7606960;23;20304;-68
2024/03/13 14:05:39;;;;;;;10.13;9.13;;;;;;;12.17;100.00;101326.44;7603784;23;20329;-68
2024/03/13 14:09:01;;;;;;;10.23;9.10;;;;;;;12.20;100.00;101327.03;7620829;23;20309;-70
2024/03/13 14:12:31;;;;;;;9.63;8.63;;;;;;;11.99;100.00;101327.06;7610078;23;20288;-70
2024/03/13 14:15:52;;;;;;;11.83;10.10;;;;;;;11.78;100.00;101333.47;7609878;23;20558;-71
2024/03/13 14:19:14;;;;;;;11.90;10.70;;;;;;;11.54;100.00;101346.34;7615743;23;20218;-69
2024/03/13 14:22:35;;;;;;;11.57;10.37;;;;;;;11.32;100.00;101359.97;7609828;23;20217;-69
2024/03/13 14:25:58;;;;;;;12.70;10.30;;;;;;;11.04;100.00;101354.16;7598802;23;239928;-69
2024/03/13 14:29:23;;;;;;;13.40;11.10;;;;;;;11.14;100.00;101355.13;7587206;23;20243;-67
2024/03/13 14:32:45;;;;;;;13.17;10.30;;;;;;;10.91;100.00;101350.78;7597036;23;20217;-68
2024/03/13 14:36:07;;;;;;;13.43;11.67;;;;;;;10.88;100.00;101353.72;7596669;23;20212;-68
2024/03/13 14:39:31;;;;;;;14.90;12.27;;;;;;;10.90;100.00;101364.38;7623646;23;20213;-68
2024/03/13 14:42:53;;;;;;;18.80;12.23;;;;;;;10.94;100.00;101368.53;7580542;23;20213;-68
2024/03/13 14:46:14;;;;;;;13.37;10.60;;;;;;;11.03;100.00;101371.34;7588434;23;20205;-69
2024/03/13 14:49:35;;;;;;;14.00;12.13;;;;;;;11.16;100.00;101363.94;7604133;23;20217;-69
2024/03/13 14:52:56;;;;;;;13.70;10.50;;;;;;;11.08;100.00;101373.66;7581969;23;20548;-70
2024/03/13 14:56:16;;;;;;;13.47;10.80;;;;;;;10.88;100.00;101374.44;7594597;23;20610;-70
2024/03/13 14:59:38;;;;;;;18.33;11.90;;;;;;;10.93;100.00;101369.53;7602204;23;20220;-71
2024/03/13 15:02:59;;;;;;;13.27;10.93;;;;;;;10.88;100.00;101375.31;7576206;23;20340;-69
2024/03/13 15:06:21;;;;;;;13.10;11.80;;;;;;;11.01;100.00;101367.06;7594677;23;20604;-69
2024/03/13 15:09:43;;;;;;;14.27;12.27;;;;;;;10.88;100.00;101375.31;7582880;23;20209;-70
2024/03/13 15:13:18;;;;;;;11.87;10.70;;;;;;;10.96;100.00;101369.28;7536437;23;20303;-72
2024/03/13 15:17:58;;;;;;;13.70;12.13;;;;;;;11.02;100.00;101366.94;7684636;22;20297;-69
2024/03/13 15:21:19;;;;;;;13.13;11.80;;;;;;;11.19;100.00;101363.69;7688985;22;20210;-69
2024/03/13 15:24:43;;;;;;;12.93;11.00;;;;;;;11.15;100.00;101369.47;7754795;22;20632;-70
2024/03/13 15:28:04;;;;;;;17.07;12.00;;;;;;;11.06;100.00;101357.59;7676931;22;21007;-69
2024/03/13 15:31:25;;;;;;;13.97;12.57;;;;;;;10.94;100.00;101366.72;7567443;23;20484;-69
2024/03/13 15:34:46;;;;;;;9.97;8.97;;;;;;;10.93;100.00;101374.94;7695500;22;20712;-67